• Join FlightAware (Why Join?)
  • Login
  • US Flag 
11:30PM EDT


 

Airport Tracker/Info


-or-


 

Live Flight TrackerFlight Track Log ✈ VH-MTJ ✈ 20-Feb-2013 ✈ YBAS / ASP - YBRL / BOX

Flight Track Log - Related Links

Times and Time Zones

All times are in EST time to prevent confusion due to time zone crossing. See the VH-MTJ flight status page for this flight to view local times or setup timezone preferences in your user account.

Time Position Orientation Groundspeed Altitude Reporting Facility
EST Latitude Longitude Course Direction KTS MPH feet Rate Location/Type
06:01PM -23.8083 133.9009 17° North 9,500  Level Aus ATC (Calculated)
06:02PM -23.7478 133.9207 17° North 9,500  Level Aus ATC (Calculated)
06:03PM -23.7221 133.9291 17° North  Level FlightAware Approximate
06:04PM -23.6616 133.9489 17° North  Level FlightAware Approximate
06:04PM -23.6288 133.9596 17° North 9,500  Level Aus ATC (Calculated)
06:05PM -23.6185 133.9630 17° North  Level FlightAware Approximate
06:05PM -23.6288 133.9596 17° North 9,500  Level Aus ATC (Calculated)
06:07PM -23.5433 133.9875 17° North  Level FlightAware Approximate
06:07PM -23.5135 133.9972 17° North 9,500  Level Aus ATC (Calculated)
06:08PM -23.5002 134.0015 17° North  Level FlightAware Approximate
06:09PM -23.4424 134.0204 17° North  Level FlightAware Approximate
06:10PM -23.3993 134.0344 17° North  Level FlightAware Approximate
06:11PM -23.3561 134.0484 17° North  Level FlightAware Approximate
06:12PM -23.3130 134.0625 17° North  Level FlightAware Approximate
06:13PM -23.2699 134.0764 17° North  Level FlightAware Approximate
06:14PM -23.2268 134.0904 17° North  Level FlightAware Approximate
06:15PM -23.1837 134.1044 17° North  Level FlightAware Approximate
06:16PM -23.1406 134.1184 17° North  Level FlightAware Approximate
06:16PM -23.0665 134.1424 197° South 9,500  Level Aus ATC (Calculated)
06:17PM -23.0975 134.1324 17° North  Level FlightAware Approximate
06:18PM -23.0205 134.1572 17° North  Level FlightAware Approximate
06:19PM -22.9774 134.1712 17° North  Level FlightAware Approximate
06:20PM -22.9343 134.1851 17° North  Level FlightAware Approximate
06:21PM -22.8912 134.1990 17° North  Level FlightAware Approximate
06:22PM -22.8480 134.2129 17° North  Level FlightAware Approximate
06:23PM -22.8049 134.2269 17° North  Level FlightAware Approximate
06:24PM -22.7618 134.2408 17° North  Level FlightAware Approximate
06:25PM -22.7187 134.2546 17° North  Level FlightAware Approximate
06:26PM -22.6755 134.2685 17° North  Level FlightAware Approximate
06:27PM -22.6324 134.2824 17° North  Level FlightAware Approximate
06:28PM -22.5893 134.2962 17° North  Level FlightAware Approximate
06:29PM -22.5466 134.3100 17° North  Level FlightAware Approximate
06:30PM -22.5040 134.3236 17° North  Level FlightAware Approximate
06:31PM -22.4613 134.3373 17° North  Level FlightAware Approximate
06:32PM -22.4186 134.3510 17° North  Level FlightAware Approximate
06:33PM -22.3760 134.3647 17° North  Level FlightAware Approximate
06:34PM -22.3333 134.3783 16° North  Level FlightAware Approximate
06:35PM -22.2907 134.3920 16° North  Level FlightAware Approximate
06:36PM -22.2480 134.4056 16° North  Level FlightAware Approximate
06:37PM -22.2054 134.4192 16° North  Level FlightAware Approximate
06:38PM -22.1627 134.4329 16° North  Level FlightAware Approximate
06:39PM -22.1200 134.4465 16° North  Level FlightAware Approximate
06:40PM -22.0773 134.4601 16° North  Level FlightAware Approximate
06:41PM -22.0347 134.4737 16° North  Level FlightAware Approximate
06:42PM -21.9920 134.4873 16° North  Level FlightAware Approximate
06:43PM -21.9493 134.5009 16° North  Level FlightAware Approximate
06:44PM -21.9067 134.5144 16° North  Level FlightAware Approximate
06:45PM -21.8640 134.5280 16° North  Level FlightAware Approximate
06:46PM -21.8213 134.5416 16° North  Level FlightAware Approximate
06:47PM -21.7786 134.5551 16° North  Level FlightAware Approximate
06:48PM -21.7360 134.5687 16° North  Level FlightAware Approximate
06:49PM -21.6933 134.5822 16° North  Level FlightAware Approximate
06:50PM -21.6506 134.5957 16° North  Level FlightAware Approximate
06:51PM -21.6079 134.6092 16° North  Level FlightAware Approximate
06:52PM -21.5652 134.6228 16° North  Level FlightAware Approximate
06:53PM -21.5226 134.6362 16° North  Level FlightAware Approximate
06:54PM -21.4799 134.6497 16° North  Level FlightAware Approximate
06:55PM -21.4372 134.6632 16° North  Level FlightAware Approximate
06:56PM -21.3945 134.6767 16° North  Level FlightAware Approximate
06:57PM -21.3518 134.6902 16° North  Level FlightAware Approximate
06:58PM -21.3091 134.7036 16° North  Level FlightAware Approximate
06:59PM -21.2664 134.7171 16° North  Level FlightAware Approximate
07:00PM -21.2237 134.7306 16° North  Level FlightAware Approximate
07:01PM -21.1811 134.7440 16° North  Level FlightAware Approximate
07:02PM -21.1384 134.7574 16° North  Level FlightAware Approximate
07:03PM -21.0957 134.7708 16° North  Level FlightAware Approximate
07:04PM -21.0530 134.7843 16° North  Level FlightAware Approximate
07:05PM -21.0103 134.7977 16° North  Level FlightAware Approximate
07:06PM -20.9676 134.8111 16° North  Level FlightAware Approximate
07:07PM -20.9249 134.8245 16° North  Level FlightAware Approximate
07:08PM -20.8822 134.8379 16° North  Level FlightAware Approximate
07:09PM -20.8395 134.8512 16° North  Level FlightAware Approximate
07:10PM -20.7968 134.8646 16° North  Level FlightAware Approximate
07:11PM -20.7541 134.8780 16° North  Level FlightAware Approximate
07:12PM -20.7114 134.8913 16° North  Level FlightAware Approximate
07:13PM -20.6687 134.9047 16° North  Level FlightAware Approximate
07:14PM -20.6260 134.9180 16° North  Level FlightAware Approximate
07:15PM -20.5833 134.9314 16° North  Level FlightAware Approximate
07:16PM -20.5406 134.9447 16° North  Level FlightAware Approximate
07:17PM -20.4979 134.9580 16° North  Level FlightAware Approximate
07:18PM -20.4552 134.9713 16° North  Level FlightAware Approximate
07:19PM -20.4125 134.9846 16° North  Level FlightAware Approximate
07:20PM -20.3697 134.9979 16° North  Level FlightAware Approximate
07:21PM -20.3270 135.0112 16° North  Level FlightAware Approximate
07:22PM -20.2843 135.0245 16° North  Level FlightAware Approximate
07:23PM -20.2416 135.0378 16° North  Level FlightAware Approximate
07:24PM -20.1989 135.0510 16° North  Level FlightAware Approximate
07:25PM -20.1562 135.0643 16° North  Level FlightAware Approximate
07:26PM -20.1135 135.0775 16° North  Level FlightAware Approximate
07:27PM -20.0707 135.0908 16° North  Level FlightAware Approximate
07:28PM -20.0280 135.1040 16° North  Level FlightAware Approximate
07:29PM -19.9853 135.1172 16° North  Level FlightAware Approximate
07:30PM -19.9426 135.1305 16° North  Level Estimated
07:31PM -19.8999 135.1438 16° North  Level FlightAware Approximate
07:32PM -19.8572 135.1570 16° North  Level FlightAware Approximate
07:33PM -19.8145 135.1702 16° North  Level FlightAware Approximate
07:34PM -19.7717 135.1835 16° North  Level FlightAware Approximate
07:35PM -19.7290 135.1967 16° North  Level FlightAware Approximate
07:36PM -19.6863 135.2099 16° North  Level FlightAware Approximate
07:37PM -19.6436 135.2231 16° North  Level FlightAware Approximate
07:38PM -19.6009 135.2363 16° North  Level FlightAware Approximate
07:39PM -19.5581 135.2495 16° North  Level FlightAware Approximate
07:40PM -19.5154 135.2627 16° North  Level FlightAware Approximate
07:41PM -19.4727 135.2758 16° North  Level FlightAware Approximate
07:42PM -19.4300 135.2890 16° North  Level FlightAware Approximate
07:43PM -19.3873 135.3022 16° North  Level FlightAware Approximate
07:44PM -19.3445 135.3153 16° North  Level FlightAware Approximate
07:45PM -19.3018 135.3285 16° North  Level FlightAware Approximate
07:46PM -19.2591 135.3416 16° North  Level FlightAware Approximate
07:47PM -19.2164 135.3548 16° North  Level FlightAware Approximate
07:48PM -19.1736 135.3679 16° North  Level FlightAware Approximate
07:49PM -19.1309 135.3810 16° North  Level FlightAware Approximate
07:50PM -19.0882 135.3941 16° North  Level FlightAware Approximate
07:51PM -19.0454 135.4073 16° North  Level FlightAware Approximate
07:52PM -19.0027 135.4203 16° North  Level FlightAware Approximate
07:53PM -18.9600 135.4335 16° North  Level FlightAware Approximate
07:54PM -18.9172 135.4465 16° North  Level FlightAware Approximate
07:55PM -18.8745 135.4596 16° North  Level FlightAware Approximate
07:56PM -18.8318 135.4727 16° North  Level FlightAware Approximate
07:57PM -18.7890 135.4858 16° North  Level FlightAware Approximate
07:58PM -18.7463 135.4988 16° North  Level FlightAware Approximate
07:59PM -18.7035 135.5119 16° North  Level FlightAware Approximate
08:00PM -18.6608 135.5249 16° North  Level FlightAware Approximate
08:01PM -18.6181 135.5380 16° North  Level FlightAware Approximate
08:02PM -18.5753 135.5510 16° North  Level FlightAware Approximate
08:03PM -18.5326 135.5641 16° North  Level FlightAware Approximate
08:04PM -18.4898 135.5771 16° North  Level FlightAware Approximate
08:05PM -18.4471 135.5901 16° North  Level FlightAware Approximate
08:06PM -18.4044 135.6031 16° North  Level FlightAware Approximate
08:07PM -18.3616 135.6161 16° North  Level FlightAware Approximate
08:08PM -18.3189 135.6291 16° North  Level FlightAware Approximate
08:09PM -18.2761 135.6421 16° North  Level FlightAware Approximate
08:10PM -18.2334 135.6551 16° North  Level FlightAware Approximate
08:11PM -18.1906 135.6680 16° North  Level FlightAware Approximate
08:12PM -18.1479 135.6810 16° North  Level FlightAware Approximate
08:13PM -18.1051 135.6940 16° North  Level FlightAware Approximate
08:14PM -18.0624 135.7069 16° North  Level FlightAware Approximate
08:15PM -18.0196 135.7199 16° North  Level FlightAware Approximate
08:16PM -17.9769 135.7328 16° North  Level FlightAware Approximate
08:17PM -17.9341 135.7458 16° North  Level FlightAware Approximate
08:18PM -17.8913 135.7587 16° North  Level FlightAware Approximate
08:19PM -17.8486 135.7716 16° North  Level FlightAware Approximate
08:20PM -17.8058 135.7846 16° North  Level FlightAware Approximate
08:21PM -17.7631 135.7975 16° North  Level FlightAware Approximate
08:22PM -17.7203 135.8104 16° North  Level FlightAware Approximate
08:23PM -17.6775 135.8233 16° North  Level FlightAware Approximate
08:24PM -17.6348 135.8362 16° North  Level FlightAware Approximate
08:25PM -17.5920 135.8491 16° North  Level FlightAware Approximate
08:26PM -17.5493 135.8620 16° North  Level FlightAware Approximate
08:27PM -17.5065 135.8748 16° North  Level FlightAware Approximate
08:28PM -17.4638 135.8877 16° North  Level FlightAware Approximate
08:29PM -17.4210 135.9006 16° North  Level FlightAware Approximate
08:30PM -17.3782 135.9134 16° North  Level FlightAware Approximate
08:31PM -17.3354 135.9263 16° North  Level FlightAware Approximate
08:32PM -17.2927 135.9391 16° North  Level FlightAware Approximate
08:33PM -17.2499 135.9520 16° North  Level FlightAware Approximate
08:34PM -17.2071 135.9648 16° North  Level FlightAware Approximate
08:35PM -17.1644 135.9776 16° North  Level FlightAware Approximate
08:36PM -17.1216 135.9905 16° North  Level FlightAware Approximate
08:37PM -17.0788 136.0033 16° North  Level FlightAware Approximate
08:38PM -17.0361 136.0161 16° North  Level FlightAware Approximate
08:39PM -16.9933 136.0289 16° North  Level FlightAware Approximate
08:40PM -16.9505 136.0417 16° North  Level FlightAware Approximate
08:41PM -16.9077 136.0545 16° North  Level FlightAware Approximate
08:42PM -16.8650 136.0673 16° North  Level FlightAware Approximate
08:43PM -16.8222 136.0801 16° North  Level FlightAware Approximate
08:44PM -16.7794 136.0928 16° North  Level FlightAware Approximate
08:45PM -16.7366 136.1056 16° North  Level FlightAware Approximate
08:46PM -16.6938 136.1184 16° North  Level FlightAware Approximate
08:47PM -16.6511 136.1311 16° North  Level FlightAware Approximate
08:48PM -16.6083 136.1439 16° North  Level FlightAware Approximate
08:49PM -16.5655 136.1567 16° North  Level FlightAware Approximate
08:50PM -16.5227 136.1694 16° North  Level FlightAware Approximate
08:51PM -16.4799 136.1821 16° North  Level FlightAware Approximate
08:52PM -16.4372 136.1949 16° North  Level FlightAware Approximate
08:53PM -16.3944 136.2076 16° North  Level FlightAware Approximate
08:54PM -16.3516 136.2203 16° North  Level FlightAware Approximate
08:55PM -16.3088 136.2330 16° North  Level FlightAware Approximate
08:56PM -16.2660 136.2457 16° North  Level FlightAware Approximate
08:57PM -16.2232 136.2584 16° North  Level FlightAware Approximate
08:58PM -16.1805 136.2711 16° North  Level FlightAware Approximate
08:59PM -16.1377 136.2838 16° North  Level FlightAware Approximate
09:00PM -16.0949 136.2965 16° North  Level FlightAware Approximate
09:01PM -16.0753 136.3023 16° North  Level FlightAware Approximate
09:02PM -16.0757 136.3028 16° North  Level Estimated
09:03PM -16.0753 136.3023 16° North  Level FlightAware Approximate
09:04PM -16.0757 136.3028 16° North  Level Estimated
09:05PM -16.0753 136.3023 16° North  Level FlightAware Approximate
09:06PM -16.0757 136.3028 16° North  Level Estimated
09:07PM -16.0753 136.3023 16° North  Level FlightAware Approximate
09:08PM -16.0757 136.3028 16° North  Level Estimated
09:09PM -16.0753 136.3023 16° North  Level FlightAware Approximate
09:10PM -16.0757 136.3028 16° North  Level Estimated
09:11PM -16.0753 136.3023 16° North  Level FlightAware Approximate
09:12PM -16.0757 136.3028 16° North  Level Estimated
09:13PM -16.0753 136.3023 16° North  Level FlightAware Approximate
09:14PM -16.0757 136.3028 16° North  Level Estimated
09:15PM -16.0753 136.3023 16° North  Level FlightAware Approximate
09:16PM -16.0757 136.3028 16° North  Level Estimated
09:17PM -16.0753 136.3023 16° North  Level FlightAware Approximate
09:18PM -16.0757 136.3028 16° North  Level Estimated